Colorado Springs, CO (80932)

4:15 AM MDT on October 22, 2014 (GMT -0600)
Old North End | Change Station
CLOSE
Current Station
Personal Weather Station
Location: Colorado Springs, CO
Elevation: 6086 ft
Nearby Weather Stations

Elev 6086 ft 38.85 °N, 104.82 °W | Updated 49 seconds ago

Mostly Cloudy
Mostly Cloudy
52.3 °F
Feels Like 52.3 °F
N
0.0
Wind Variable Wind from South
Gusts 0.0 mph

Today
High -- | Low -- °F
--% Chance of Precip.
Yesterday
High -- | Low -- °F
Precip. -- in
7:15 AM 6:10 PM
Waning Crescent, 2% visible
Pressure 29.83 in
Visibility 10.0 miles
Clouds Scattered Clouds 16000 ft
Dew Point 38 °F
Humidity 59%
Rainfall 0.00 in
Snow Depth Not available.
UV 0 out of 12
Pollen 2.80 out of 12
Air Quality Not available.
Flu Activity Sporadic
METAR KCOS 220954Z 15005KT 10SM SCT160 12/02 A3003 RMK AO2 SLP101 T01220022

More Conditions Fewer Conditions

Pressure 29.83 in
Visibility 10.0 miles
Clouds Scattered Clouds 16000 ft
Dew Point 38 °F
Humidity 59%
Rainfall 0.00 in
Snow Depth Not available.
UV 0 out of 12
Pollen 2.80 out of 12
Air Quality Not available.
Flu Activity Sporadic
METAR KCOS 220954Z 15005KT 10SM SCT160 12/02 A3003 RMK AO2 SLP101 T01220022

More Conditions Fewer Conditions

10-Day Weather Forecast

Almanac

Astronomy

Oct. 22, 2014 Rise Set
Actual Time 7:15 AM MDT 6:10 PM MDT
Civil Twilight 6:48 AM MDT 6:37 PM MDT
Nautical Twilight 6:17 AM MDT 7:09 PM MDT
Astronomical Twilight 5:46 AM MDT 7:39 PM MDT
Moon 6:00 AM MDT 5:38 PM MDT
Length of Visible Light 11h 49m
Length of Day
10h 55m
Tomorrow will be 2m 23s shorter.
Waning Crescent, 2% of the Moon is Illuminated
Today
Waning Crescent
Oct 23
New
Oct 30
First Quarter
Nov 6
Full
Nov 14
Last Quarter

Today's Extremes

State Highs State Lows

Community

WunderPhotos

Upload Photos

1,763,901 photos uploaded!

Nearby

Air Quality

  Air Quality AQ Index Pollutant
Yesterday Good
OZONE
Yesterday Good
PM2.5
Wednesday Good
PM2.5
Wednesday Good
OZONE

Snow Depth

Station Depth Elevation
Glen Cove 1 in 11460 ft
Echo Lake 0 in 10600 ft
Rough And Tumble 0 in 10360 ft
South Colony 1 in 10800 ft
Michigan Creek 0 in 10600 ft

Earthquake Activity

City Distance Mag. Time & Date
Trinidad, Colorado 122 miles 2.7 10:33 PM MDT
2014-10-20
Trinidad, Colorado 113 miles 2.5 10:01 PM MDT
2014-10-19
Minimum magnitude displayed is 2.5.

Coastal Water Temperatures

Place Temperature
No Stations Reporting

Nearby Weather Stations